createdAt,value
2024-03-13T00:00:15.043Z,86.35
2024-03-13T00:02:46.608Z,86.83
2024-03-13T00:05:14.262Z,86.67
2024-03-13T00:07:44.523Z,86.45
2024-03-13T00:10:12.174Z,86.67
2024-03-13T00:12:39.809Z,86.96
2024-03-13T00:15:08.338Z,86.91
2024-03-13T00:17:37.234Z,86.82
2024-03-13T00:20:05.737Z,86.56
2024-03-13T00:22:35.815Z,86.61
2024-03-13T00:25:03.498Z,86.94
2024-03-13T00:27:31.090Z,86.76
2024-03-13T00:29:58.533Z,86.46
2024-03-13T00:32:26.558Z,86.61
2024-03-13T00:34:54.137Z,86.39
2024-03-13T00:37:23.136Z,86.50
2024-03-13T00:39:51.076Z,86.28
2024-03-13T00:42:18.838Z,86.30
2024-03-13T00:44:47.556Z,86.37
2024-03-13T00:47:16.312Z,86.01
2024-03-13T00:49:44.012Z,86.01
2024-03-13T00:52:11.526Z,86.18
2024-03-13T00:54:45.775Z,85.85
2024-03-13T00:57:14.585Z,85.66
2024-03-13T00:59:42.246Z,85.85
2024-03-13T01:02:09.962Z,85.84
2024-03-13T01:04:37.992Z,85.58
2024-03-13T01:07:08.343Z,85.53
2024-03-13T01:09:36.282Z,85.66
2024-03-13T01:12:07.432Z,85.56
2024-03-13T01:14:35.467Z,85.27
2024-03-13T01:17:04.386Z,85.36
2024-03-13T01:19:34.675Z,85.34
2024-03-13T01:22:07.328Z,85.30
2024-03-13T01:24:37.604Z,85.23
2024-03-13T01:27:05.226Z,85.39
2024-03-13T01:29:32.700Z,85.46
2024-03-13T01:32:01.159Z,85.05
2024-03-13T01:34:28.842Z,85.16
2024-03-13T01:37:14.996Z,85.26
2024-03-13T01:39:42.793Z,85.18
2024-03-13T01:42:29.046Z,85.07
2024-03-13T01:45:29.322Z,85.14
2024-03-13T01:48:16.074Z,85.30
2024-03-13T01:51:02.849Z,85.16
2024-03-13T01:53:49.220Z,85.39
2024-03-13T01:56:24.312Z,85.24
2024-03-13T01:59:03.790Z,85.37
2024-03-13T02:01:50.572Z,85.16
2024-03-13T02:04:18.974Z,85.41
2024-03-13T02:06:48.096Z,85.43
2024-03-13T02:09:16.365Z,85.47
2024-03-13T02:11:43.934Z,85.49
2024-03-13T02:14:11.471Z,85.70
2024-03-13T02:16:38.992Z,85.80
2024-03-13T02:19:07.759Z,85.62
2024-03-13T02:21:36.411Z,85.51
2024-03-13T02:24:05.140Z,85.69
2024-03-13T02:26:32.574Z,85.45
2024-03-13T02:29:00.083Z,85.55
2024-03-13T02:31:27.702Z,85.47
2024-03-13T02:33:57.233Z,85.38
2024-03-13T02:36:24.756Z,85.17
2024-03-13T02:38:52.246Z,85.02
2024-03-13T02:41:19.792Z,85.34
2024-03-13T02:43:47.285Z,85.24
2024-03-13T02:46:15.018Z,84.96
2024-03-13T02:48:42.676Z,84.81
2024-03-13T02:51:10.250Z,84.81
2024-03-13T02:53:39.687Z,85.00
2024-03-13T02:56:10.267Z,84.86
2024-03-13T02:58:37.775Z,84.80
2024-03-13T03:01:05.396Z,84.72
2024-03-13T03:03:32.973Z,84.81
2024-03-13T03:06:03.521Z,84.62
2024-03-13T03:08:33.636Z,84.66
2024-03-13T03:11:04.504Z,84.92
2024-03-13T03:13:34.145Z,85.01
2024-03-13T03:16:02.051Z,85.02
2024-03-13T03:18:29.575Z,85.25
2024-03-13T03:20:59.385Z,85.39
2024-03-13T03:23:27.378Z,85.14
2024-03-13T03:25:54.865Z,84.83
2024-03-13T03:28:22.778Z,85.18
2024-03-13T03:30:52.954Z,85.47
2024-03-13T03:33:20.498Z,85.15
2024-03-13T03:35:48.907Z,85.13
2024-03-13T03:38:16.407Z,85.42
2024-03-13T03:40:43.886Z,85.50
2024-03-13T03:43:11.915Z,85.46
2024-03-13T03:45:39.938Z,85.61
2024-03-13T03:48:12.232Z,85.82
2024-03-13T03:50:40.516Z,86.03
2024-03-13T03:53:08.738Z,85.92
2024-03-13T03:55:37.663Z,86.09
2024-03-13T03:58:07.605Z,86.66
2024-03-13T04:00:36.617Z,86.39
2024-03-13T04:03:06.251Z,86.31
2024-03-13T04:05:33.779Z,86.78
2024-03-13T04:08:01.246Z,86.84
2024-03-13T04:10:28.877Z,86.83
2024-03-13T04:12:56.787Z,86.80
2024-03-13T04:15:24.956Z,86.99
2024-03-13T04:17:52.890Z,86.92
2024-03-13T04:20:23.205Z,86.83
2024-03-13T04:22:51.967Z,86.78
2024-03-13T04:25:20.481Z,86.85
2024-03-13T04:27:49.191Z,86.51
2024-03-13T04:30:16.940Z,86.19
2024-03-13T04:32:44.642Z,86.25
2024-03-13T04:35:13.208Z,86.35
2024-03-13T04:37:40.788Z,85.61
2024-03-13T04:40:11.917Z,85.71
2024-03-13T04:42:39.629Z,85.67
2024-03-13T04:45:08.553Z,85.59
2024-03-13T04:47:40.785Z,85.56
2024-03-13T04:50:10.197Z,85.63
2024-03-13T04:52:38.169Z,85.66
2024-03-13T04:55:07.607Z,85.60
2024-03-13T04:57:35.948Z,85.39
2024-03-13T05:00:05.516Z,85.58
2024-03-13T05:02:35.675Z,85.67
2024-03-13T05:05:04.980Z,85.68
2024-03-13T05:07:32.792Z,85.59
2024-03-13T05:10:00.894Z,85.83
2024-03-13T05:12:36.142Z,85.52
2024-03-13T05:15:05.665Z,85.51
2024-03-13T05:17:35.553Z,85.85
2024-03-13T05:20:08.222Z,85.74
2024-03-13T05:22:36.175Z,85.80
2024-03-13T05:25:06.069Z,86.12
2024-03-13T05:27:33.979Z,86.06
2024-03-13T05:30:01.600Z,85.84
2024-03-13T05:32:29.087Z,85.89
2024-03-13T05:34:57.163Z,86.00
2024-03-13T05:37:24.671Z,86.15
2024-03-13T05:39:53.798Z,86.20
2024-03-13T05:42:23.586Z,86.15
2024-03-13T05:44:51.119Z,86.11
2024-03-13T05:47:18.805Z,86.14
2024-03-13T05:49:46.260Z,85.78
2024-03-13T05:52:13.745Z,85.74
2024-03-13T05:54:41.799Z,86.03
2024-03-13T05:57:09.377Z,85.87
2024-03-13T05:59:37.021Z,85.71
2024-03-13T06:02:06.689Z,85.85
2024-03-13T06:04:37.752Z,85.79
2024-03-13T06:07:06.841Z,85.74
2024-03-13T06:09:34.955Z,85.76
2024-03-13T06:12:02.788Z,85.73
2024-03-13T06:14:31.224Z,86.12
2024-03-13T06:16:58.701Z,85.91
2024-03-13T06:19:27.794Z,86.13
2024-03-13T06:21:55.568Z,86.29
2024-03-13T06:24:31.935Z,86.02
2024-03-13T06:27:02.069Z,85.68
2024-03-13T06:29:48.510Z,85.73
2024-03-13T06:32:16.185Z,85.45
2024-03-13T06:34:43.803Z,85.29
2024-03-13T06:37:12.357Z,85.45
2024-03-13T06:39:39.986Z,85.54
2024-03-13T06:42:07.685Z,85.40
2024-03-13T06:44:35.276Z,85.18
2024-03-13T06:47:02.923Z,85.18
2024-03-13T06:49:30.498Z,84.65
2024-03-13T06:51:58.296Z,84.87
2024-03-13T06:54:25.963Z,85.27
2024-03-13T06:56:54.645Z,84.85
2024-03-13T06:59:22.291Z,84.38
2024-03-13T07:01:52.637Z,84.37
2024-03-13T07:04:20.425Z,84.17
2024-03-13T07:06:48.116Z,84.02
2024-03-13T07:09:18.025Z,84.02
2024-03-13T07:11:46.082Z,84.06
2024-03-13T07:14:15.086Z,84.07
2024-03-13T07:16:42.653Z,84.01
2024-03-13T07:19:10.628Z,84.03
2024-03-13T07:21:39.620Z,84.38
2024-03-13T07:24:08.506Z,84.43
2024-03-13T07:26:36.182Z,84.22
2024-03-13T07:29:05.461Z,84.22
2024-03-13T07:31:33.062Z,84.43
2024-03-13T07:34:00.705Z,84.31
2024-03-13T07:36:29.022Z,83.91
2024-03-13T07:39:00.204Z,83.65
2024-03-13T07:41:28.392Z,83.30
2024-03-13T07:43:56.188Z,83.08
2024-03-13T07:46:23.776Z,82.81
2024-03-13T07:48:51.461Z,82.92
2024-03-13T07:51:19.199Z,82.58
2024-03-13T07:53:46.744Z,81.97
2024-03-13T07:56:14.236Z,81.48
2024-03-13T07:58:41.854Z,81.35
2024-03-13T08:01:09.513Z,81.48
2024-03-13T08:03:37.251Z,81.19
2024-03-13T09:06:51.040Z,76.52
2024-03-13T09:09:24.664Z,76.90
2024-03-13T09:11:52.444Z,76.99
2024-03-13T09:14:20.569Z,77.07
2024-03-13T09:16:51.041Z,77.22
2024-03-13T09:19:19.226Z,77.33
2024-03-13T09:21:49.336Z,77.51
2024-03-13T09:24:17.778Z,77.90
2024-03-13T09:26:45.480Z,78.20
2024-03-13T09:29:15.781Z,78.34
2024-03-13T09:31:43.541Z,78.57
2024-03-13T09:34:12.050Z,78.60
2024-03-13T09:36:39.782Z,78.38
2024-03-13T09:39:07.948Z,78.15
2024-03-13T09:41:35.808Z,78.23
2024-03-13T09:44:03.643Z,78.42
2024-03-13T09:46:31.692Z,78.43
2024-03-13T09:48:59.646Z,78.48
2024-03-13T09:51:27.518Z,78.38
2024-03-13T09:53:55.126Z,78.11
2024-03-13T09:56:22.748Z,77.71
2024-03-13T09:58:54.321Z,77.47
2024-03-13T10:01:29.398Z,76.84
2024-03-13T10:04:03.662Z,76.25
2024-03-13T10:06:32.524Z,76.29
2024-03-13T10:09:00.131Z,76.32
2024-03-13T10:11:27.727Z,76.32
2024-03-13T10:13:55.871Z,75.39
2024-03-13T10:16:26.290Z,75.11
2024-03-13T10:18:54.003Z,75.16
2024-03-13T10:21:27.157Z,74.19
2024-03-13T10:23:58.192Z,73.68
2024-03-13T10:26:27.459Z,73.81
2024-03-13T10:28:55.593Z,73.68
2024-03-13T10:31:23.142Z,73.04
2024-03-13T10:33:51.767Z,73.12
2024-03-13T10:36:20.399Z,73.31
2024-03-13T10:38:48.413Z,72.88
2024-03-13T10:41:16.719Z,73.24
2024-03-13T10:43:45.114Z,72.72
2024-03-13T10:46:14.088Z,72.99
2024-03-13T10:48:42.602Z,72.25
2024-03-13T10:51:13.441Z,71.87
2024-03-13T10:53:41.303Z,71.48
2024-03-13T10:56:16.017Z,71.94
2024-03-13T10:58:43.919Z,72.11
2024-03-13T11:01:18.180Z,71.99
2024-03-13T11:03:47.621Z,71.58
2024-03-13T11:06:16.545Z,72.00
2024-03-13T11:11:10.669Z,70.82
2024-03-13T11:13:51.686Z,70.73
2024-03-13T11:16:19.382Z,70.82
2024-03-13T11:18:47.361Z,70.29
2024-03-13T11:21:33.640Z,69.83
2024-03-13T11:24:03.797Z,70.28
2024-03-13T11:26:37.048Z,70.01
2024-03-13T11:29:08.386Z,69.59
2024-03-13T11:31:35.880Z,68.71
2024-03-13T11:34:03.657Z,68.00
2024-03-13T11:36:31.457Z,67.62
2024-03-13T11:38:59.298Z,67.09
2024-03-13T11:41:26.829Z,67.24
2024-03-13T11:43:56.274Z,67.17
2024-03-13T11:46:34.957Z,67.80
2024-03-13T11:49:05.222Z,68.05
2024-03-13T11:51:36.707Z,68.16
2024-03-13T11:54:14.362Z,67.51
2024-03-13T11:56:42.601Z,67.88
2024-03-13T11:59:18.051Z,68.05
2024-03-13T12:01:46.030Z,68.02
2024-03-13T12:04:13.876Z,67.95
2024-03-13T12:06:46.576Z,67.76
2024-03-13T12:09:17.486Z,68.15
2024-03-13T12:11:52.582Z,67.87
2024-03-13T12:14:22.081Z,68.31
2024-03-13T12:16:50.105Z,68.34
2024-03-13T12:19:18.594Z,68.50
2024-03-13T12:21:46.175Z,68.86
2024-03-13T12:24:14.389Z,69.39
2024-03-13T12:26:42.137Z,69.79
2024-03-13T12:29:10.763Z,69.82
2024-03-13T12:31:41.889Z,69.61
2024-03-13T12:34:11.474Z,69.92
2024-03-13T12:36:44.528Z,69.90
2024-03-13T12:39:12.158Z,70.16
2024-03-13T12:41:39.846Z,70.51
2024-03-13T12:44:07.454Z,70.26
2024-03-13T12:46:35.284Z,70.09
2024-03-13T12:49:02.851Z,70.49
2024-03-13T12:51:30.553Z,70.30
2024-03-13T12:54:07.554Z,70.58
2024-03-13T12:56:35.273Z,70.62
2024-03-13T12:59:02.897Z,70.70
2024-03-13T13:01:30.494Z,69.81
2024-03-13T13:03:58.546Z,69.66
2024-03-13T13:06:26.692Z,69.22
2024-03-13T13:08:54.961Z,68.97
2024-03-13T13:11:23.037Z,68.55
2024-03-13T13:13:50.579Z,68.29
2024-03-13T13:16:18.825Z,67.91
2024-03-13T13:18:47.690Z,68.03
2024-03-13T13:21:15.564Z,67.62
2024-03-13T13:23:45.383Z,67.77
2024-03-13T13:26:13.499Z,67.69
2024-03-13T13:28:41.176Z,67.59
2024-03-13T13:31:10.275Z,66.75
2024-03-13T13:33:38.386Z,66.60
2024-03-13T13:36:07.373Z,66.50
2024-03-13T13:38:35.010Z,65.85
2024-03-13T13:41:02.686Z,65.38
2024-03-13T13:43:33.746Z,65.31
2024-03-13T13:46:06.585Z,65.16
2024-03-13T13:48:34.477Z,65.68
2024-03-13T13:51:02.867Z,65.91
2024-03-13T13:53:34.321Z,65.64
2024-03-13T13:56:02.059Z,65.51
2024-03-13T13:58:30.892Z,65.28
2024-03-13T14:00:59.288Z,65.45
2024-03-13T14:03:27.159Z,65.58
2024-03-13T14:05:57.344Z,65.66
2024-03-13T14:08:24.923Z,65.39
2024-03-13T14:10:59.150Z,64.61
2024-03-13T14:13:29.116Z,64.74
2024-03-13T14:15:56.632Z,64.60
2024-03-13T14:18:24.240Z,64.58
2024-03-13T14:20:52.177Z,64.79
2024-03-13T14:23:19.764Z,64.64
2024-03-13T14:25:47.774Z,64.50
2024-03-13T14:28:16.614Z,64.40
2024-03-13T14:30:45.958Z,64.59
2024-03-13T14:33:13.874Z,64.12
2024-03-13T14:35:43.634Z,64.64
2024-03-13T14:38:13.462Z,64.61
2024-03-13T14:40:41.393Z,63.92
2024-03-13T14:43:10.696Z,63.63
2024-03-13T14:45:39.302Z,63.17
2024-03-13T14:48:08.355Z,63.33
2024-03-13T14:50:36.383Z,63.39
2024-03-13T14:53:06.730Z,63.35
2024-03-13T14:55:35.421Z,63.55
2024-03-13T14:58:04.684Z,63.92
2024-03-13T15:00:32.586Z,63.80
2024-03-13T15:03:01.160Z,63.57
2024-03-13T15:05:32.013Z,63.77
2024-03-13T15:08:02.385Z,63.74
2024-03-13T15:10:30.063Z,63.99
2024-03-13T15:12:59.195Z,63.86
2024-03-13T15:15:27.386Z,64.26
2024-03-13T15:17:56.157Z,64.37
2024-03-13T15:20:24.197Z,64.41
2024-03-13T15:22:52.347Z,64.63
2024-03-13T15:25:21.298Z,64.86
2024-03-13T15:27:49.344Z,65.16
2024-03-13T15:30:20.042Z,65.88
2024-03-13T15:32:48.318Z,66.08
2024-03-13T15:35:16.271Z,66.24
2024-03-13T15:37:44.556Z,66.67
2024-03-13T15:40:14.204Z,67.07
2024-03-13T15:42:42.176Z,67.12
2024-03-13T15:45:12.574Z,67.56
2024-03-13T15:47:44.206Z,67.56
2024-03-13T15:50:24.169Z,67.76
2024-03-13T15:52:57.325Z,68.08
2024-03-13T15:55:25.086Z,68.13
2024-03-13T15:57:52.974Z,68.28
2024-03-13T16:00:24.790Z,67.99
2024-03-13T16:02:54.622Z,67.80
2024-03-13T16:05:23.574Z,68.10
2024-03-13T16:07:56.606Z,68.04
2024-03-13T16:10:24.269Z,68.20
2024-03-13T16:12:51.871Z,67.84
2024-03-13T16:15:19.650Z,67.96
2024-03-13T16:17:47.771Z,67.79
2024-03-13T16:20:17.575Z,67.75
2024-03-13T16:22:49.003Z,68.02
2024-03-13T16:25:20.643Z,68.13
2024-03-13T16:27:48.294Z,68.41
2024-03-13T16:30:22.440Z,68.19
2024-03-13T16:32:50.516Z,68.02
2024-03-13T16:35:18.302Z,68.01
2024-03-13T16:37:47.044Z,67.86
2024-03-13T16:40:18.744Z,67.75
2024-03-13T16:42:47.371Z,67.75
2024-03-13T16:45:19.215Z,67.47
2024-03-13T16:47:47.553Z,67.50
2024-03-13T16:50:16.646Z,67.01
2024-03-13T16:52:45.033Z,66.62
2024-03-13T16:55:12.924Z,66.66
2024-03-13T16:57:42.072Z,66.58
2024-03-13T17:00:16.920Z,66.53
2024-03-13T17:02:48.475Z,66.51
2024-03-13T17:05:17.795Z,66.45
2024-03-13T17:07:48.092Z,66.35
2024-03-13T17:10:17.800Z,66.31
2024-03-13T17:12:46.900Z,65.81
2024-03-13T17:15:14.880Z,65.85
2024-03-13T17:17:42.963Z,65.76
2024-03-13T17:20:11.529Z,65.33
2024-03-13T17:22:39.209Z,65.02
2024-03-13T17:25:07.210Z,64.76
2024-03-13T17:27:34.898Z,64.62
2024-03-13T17:30:02.632Z,64.24
2024-03-13T17:32:30.416Z,63.80
2024-03-13T17:35:01.632Z,63.39
2024-03-13T17:37:30.056Z,63.40
2024-03-13T17:39:58.017Z,63.53
2024-03-13T17:42:25.750Z,63.34
2024-03-13T17:44:54.605Z,63.00
2024-03-13T17:47:24.310Z,63.01
2024-03-13T17:49:52.932Z,62.93
2024-03-13T17:52:20.723Z,62.57
2024-03-13T17:54:48.534Z,62.54
2024-03-13T17:57:16.173Z,63.02
2024-03-13T17:59:45.407Z,62.74
2024-03-13T18:02:13.793Z,62.86
2024-03-13T18:04:41.591Z,62.96
2024-03-13T18:07:09.860Z,62.70
2024-03-13T18:09:37.543Z,62.60
2024-03-13T18:12:05.956Z,62.38
2024-03-13T18:14:33.610Z,62.35
2024-03-13T18:17:01.157Z,62.69
2024-03-13T18:19:28.732Z,63.09
2024-03-13T18:21:56.306Z,63.25
2024-03-13T18:24:23.895Z,63.87
2024-03-13T18:26:51.566Z,64.17
2024-03-13T18:29:19.175Z,63.05
2024-03-13T18:31:46.850Z,62.18
2024-03-13T18:34:14.888Z,61.77
2024-03-13T18:36:43.387Z,61.05
2024-03-13T18:39:12.737Z,60.81
2024-03-13T18:41:41.078Z,60.62
2024-03-13T18:44:08.923Z,60.59
2024-03-13T18:46:36.433Z,60.59
2024-03-13T18:49:04.059Z,60.49
2024-03-13T18:51:31.863Z,60.63
2024-03-13T18:54:00.407Z,60.88
2024-03-13T18:56:28.200Z,61.23
2024-03-13T18:58:55.892Z,61.23
2024-03-13T19:01:24.024Z,60.99
2024-03-13T19:03:51.776Z,61.06
2024-03-13T19:06:24.587Z,61.35
2024-03-13T19:08:52.601Z,61.46
2024-03-13T19:11:20.352Z,61.57
2024-03-13T19:13:48.024Z,61.74
2024-03-13T19:16:18.150Z,62.06
2024-03-13T19:18:46.687Z,62.01
2024-03-13T19:21:15.448Z,61.76
2024-03-13T19:23:43.113Z,62.15
2024-03-13T19:26:10.790Z,62.00
2024-03-13T19:28:38.364Z,62.03
2024-03-13T19:31:10.243Z,62.16
2024-03-13T19:33:39.289Z,62.18
2024-03-13T19:36:07.317Z,62.19
2024-03-13T19:38:35.032Z,62.51
2024-03-13T19:41:02.615Z,61.99
2024-03-13T19:43:30.531Z,61.61
2024-03-13T19:45:59.889Z,61.17
2024-03-13T19:48:27.736Z,61.23
2024-03-13T19:50:55.460Z,61.00
2024-03-13T19:53:23.222Z,61.16
2024-03-13T19:55:50.763Z,61.67
2024-03-13T19:58:18.300Z,62.39
2024-03-13T20:00:46.807Z,62.98
2024-03-13T20:03:14.495Z,63.62
2024-03-13T20:05:42.187Z,64.23
2024-03-13T20:08:11.097Z,64.82
2024-03-13T20:10:39.407Z,65.32
2024-03-13T20:13:07.294Z,65.57
2024-03-13T20:15:34.992Z,65.75
2024-03-13T20:18:02.936Z,66.26
2024-03-13T20:20:36.180Z,66.57
2024-03-13T20:23:06.609Z,66.53
2024-03-13T20:25:34.245Z,66.32
2024-03-13T20:28:01.948Z,66.63
2024-03-13T20:30:29.525Z,66.92
2024-03-13T20:32:59.084Z,67.17
2024-03-13T20:35:27.539Z,67.45
2024-03-13T20:37:55.128Z,67.52
2024-03-13T20:40:23.663Z,67.48
2024-03-13T20:42:51.213Z,67.40
2024-03-13T20:45:18.994Z,67.57
2024-03-13T20:47:47.148Z,67.79
2024-03-13T20:50:14.779Z,67.68
2024-03-13T20:52:44.567Z,67.80
2024-03-13T20:55:12.119Z,67.66
2024-03-13T20:57:39.960Z,67.66
2024-03-13T21:00:18.965Z,67.75
2024-03-13T21:02:46.922Z,67.80
2024-03-13T21:05:17.354Z,67.98
2024-03-13T21:07:45.069Z,67.95
2024-03-13T21:10:15.464Z,68.13
2024-03-13T21:12:47.388Z,68.30
2024-03-13T21:15:15.097Z,68.38
2024-03-13T21:17:44.149Z,68.40
2024-03-13T21:20:18.797Z,68.08
2024-03-13T21:22:46.938Z,68.36
2024-03-13T21:25:14.654Z,68.35
2024-03-13T21:27:43.515Z,68.48
2024-03-13T21:30:13.806Z,68.61
2024-03-13T21:32:43.646Z,68.45
2024-03-13T21:35:12.944Z,68.27
2024-03-13T21:37:41.838Z,67.83
2024-03-13T21:40:17.037Z,67.67
2024-03-13T21:42:46.271Z,67.66
2024-03-13T21:45:15.564Z,67.84
2024-03-13T21:47:46.149Z,67.75
2024-03-13T21:50:15.846Z,67.49
2024-03-13T21:52:43.737Z,67.42
2024-03-13T21:55:11.323Z,67.32
2024-03-13T21:57:43.871Z,67.14
2024-03-13T22:00:12.210Z,66.92
2024-03-13T22:02:39.773Z,66.71
2024-03-13T22:05:08.309Z,66.64
2024-03-13T22:07:36.387Z,66.38
2024-03-13T22:10:05.056Z,66.41
2024-03-13T22:12:32.649Z,66.31
2024-03-13T22:15:06.314Z,66.02
2024-03-13T22:17:34.809Z,66.15
2024-03-13T22:20:02.464Z,66.07
2024-03-13T22:22:29.999Z,66.28
2024-03-13T22:24:57.528Z,66.40
2024-03-13T22:27:26.367Z,66.42
2024-03-13T22:29:54.879Z,66.36
2024-03-13T22:32:30.058Z,65.94
2024-03-13T22:34:58.244Z,65.68
2024-03-13T22:37:26.756Z,65.28
2024-03-13T22:39:54.485Z,65.16
2024-03-13T22:42:22.135Z,64.86
2024-03-13T22:44:49.997Z,64.63
2024-03-13T22:47:17.564Z,64.36
2024-03-13T22:49:45.036Z,64.02
2024-03-13T22:52:15.454Z,63.87
2024-03-13T22:54:42.906Z,63.84
2024-03-13T22:57:10.427Z,63.48
2024-03-13T22:59:38.002Z,63.55
2024-03-13T23:02:05.445Z,63.46
2024-03-13T23:04:35.565Z,63.27
2024-03-13T23:07:04.927Z,63.16
2024-03-13T23:09:32.890Z,63.15
2024-03-13T23:12:02.416Z,63.27
2024-03-13T23:14:29.976Z,63.58
2024-03-13T23:16:58.507Z,63.49
2024-03-13T23:19:26.009Z,63.66
2024-03-13T23:21:54.517Z,63.41
2024-03-13T23:24:22.012Z,63.49
2024-03-13T23:28:56.169Z,63.37
2024-03-13T23:31:23.676Z,63.49
2024-03-13T23:33:51.309Z,63.33
2024-03-13T23:36:18.949Z,63.38
2024-03-13T23:38:46.546Z,63.10
2024-03-13T23:41:15.473Z,62.97
2024-03-13T23:43:46.216Z,62.86
2024-03-13T23:46:14.369Z,62.76
2024-03-13T23:48:42.121Z,62.69
2024-03-13T23:51:11.947Z,62.81
2024-03-13T23:53:40.566Z,62.48
2024-03-13T23:56:11.363Z,62.35
2024-03-13T23:58:39.034Z,62.30
